Praetorius — 5BRS2 — position and weather

sailwx.info

Track history (hours):
 
Tides and Currents Weather Stations Pressure Air Temp Water Temp Dewpoint Dewpoint Depression Visibility Wind Speed Wind Dir Waves Ship Positions

Praetorius

Last reported at 2018-Jun-15 01:03 UTC. Time now 2018-Jun-21 17:36 UTC.
Position N 31°42' W 080°27'.

Length 169 m; draft 5.3 m.

Type: Ship. MMSI: 212942000.

Date/timePositionNaut miles runAvg speedWind from/ knotsBaromVisibWave heightAir tempDewpointWater temp
2018-Jun-15 01:03N 31°42' W 080°27'112.1
2018-Jun-15 00:58N 31°43' W 080°28'611.9
2018-Jun-15 00:30N 31°48' W 080°32'1011.8
2018-Jun-14 23:40N 31°55' W 080°39'211.8
2018-Jun-14 23:30N 31°57' W 080°41'611.7
2018-Jun-14 23:00N 31°60' W 080°47'5 9.7
2018-Jun-14 22:30N 32°02' W 080°52'4 8.0
2018-Jun-14 22:00N 32°03' W 080°56'4 8.4
2018-Jun-14 21:30N 32°06' W 080°60'4 7.3
2018-Jun-14 21:00N 32°05' W 081°04'0 0.1
2018-Jun-14 20:23N 32°05' W 081°04'0 0.0
2018-Jun-14 19:59N 32°05' W 081°04'0 0.0
2018-Jun-14 19:26N 32°05' W 081°04'0 0.0
2018-Jun-14 18:59N 32°05' W 081°04'0 0.0
2018-Jun-14 18:17N 32°05' W 081°04'0 0.0
2018-Jun-14 17:59N 32°05' W 081°04'0 0.0
2018-Jun-14 17:17N 32°05' W 081°04'0 0.0
2018-Jun-14 16:53N 32°05' W 081°04'0 0.0
2018-Jun-14 16:29N 32°05' W 081°04'0 0.0
2018-Jun-14 15:59N 32°05' W 081°04'0 0.0
2018-Jun-14 15:29N 32°05' W 081°04'0 0.0
2018-Jun-14 14:59N 32°05' W 081°04'0 0.0
2018-Jun-14 14:29N 32°05' W 081°04'0 0.0
2018-Jun-14 13:59N 32°05' W 081°04'0 0.0
2018-Jun-14 13:29N 32°05' W 081°04'0 0.0
2018-Jun-14 12:59N 32°05' W 081°04'0 0.0
2018-Jun-14 12:29N 32°05' W 081°04'0 0.0
2018-Jun-14 11:59N 32°05' W 081°04'0 0.0
2018-Jun-14 11:29N 32°05' W 081°04'0 0.0
2018-Jun-14 10:59N 32°05' W 081°04'0 0.0
2018-Jun-14 10:29N 32°05' W 081°04'0 0.0
2018-Jun-14 09:59N 32°05' W 081°04'0 0.0
2018-Jun-14 09:29N 32°05' W 081°04'0 0.0
2018-Jun-14 08:59N 32°05' W 081°04'0 0.0
2018-Jun-14 08:29N 32°05' W 081°04'0 0.6
2018-Jun-14 08:00N 32°05' W 081°04'3 6.4
2018-Jun-14 07:30N 32°06' W 081°00'4 8.4
2018-Jun-14 07:00N 32°03' W 080°56'4 8.1
2018-Jun-14 06:30N 32°02' W 080°52'4 8.6
2018-Jun-14 06:00N 31°60' W 080°47'5 9.7
2018-Jun-14 05:30N 31°58' W 080°42'2 3.7
2018-Jun-14 05:00N 31°59' W 080°41'2 3.0
2018-Jun-14 04:29N 32°00' W 080°40'0 0.0
2018-Jun-14 03:53N 32°00' W 080°40'0 0.0
2018-Jun-14 03:29N 32°00' W 080°40'0 0.0
2018-Jun-14 02:59N 32°00' W 080°40'0 0.0
2018-Jun-14 02:26N 32°00' W 080°40'0 0.0
2018-Jun-14 01:59N 32°00' W 080°40'0 0.0
2018-Jun-14 01:29N 32°00' W 080°40'0 0.0
2018-Jun-14 00:59N 32°00' W 080°40'0 0.1
2018-Jun-14 00:29N 32°00' W 080°41'0 0.1
2018-Jun-13 23:59N 32°00' W 080°41'0 0.1
2018-Jun-13 23:29N 32°00' W 080°41'0 0.0
2018-Jun-13 22:59N 32°00' W 080°41'0 0.0
2018-Jun-13 22:26N 32°00' W 080°41'0 0.0
2018-Jun-13 21:50N 32°00' W 080°41'0 0.0
2018-Jun-13 21:29N 32°00' W 080°41'0 0.0
2018-Jun-13 20:56N 32°00' W 080°41'0 0.1
2018-Jun-13 19:14N 32°00' W 080°41'0 0.2
2018-Jun-13 18:56N 32°00' W 080°41'0 0.2
2018-Jun-13 18:26N 32°00' W 080°40'0 0.0
2018-Jun-13 17:56N 32°00' W 080°40'0 0.0
2018-Jun-13 17:20N 32°00' W 080°40'0 0.0
2018-Jun-13 16:56N 32°00' W 080°40'0 0.0
2018-Jun-13 16:26N 32°00' W 080°40'0 0.0
2018-Jun-13 15:56N 32°00' W 080°40'0 0.0
2018-Jun-13 14:56N 32°00' W 080°40'0 0.0
2018-Jun-13 14:26N 32°00' W 080°40'0 0.1
2018-Jun-13 13:50N 32°00' W 080°40'0 0.1
2018-Jun-13 13:14N 32°00' W 080°41'0 0.1
2018-Jun-13 12:56N 32°00' W 080°41'0 0.1
2018-Jun-13 12:26N 32°00' W 080°41'0 0.0
2018-Jun-13 11:56N 32°00' W 080°41'0 0.1
2018-Jun-13 11:26N 32°00' W 080°41'0 0.0
2018-Jun-13 10:56N 32°00' W 080°41'0 0.0
2018-Jun-13 10:20N 32°00' W 080°41'0 0.0
2018-Jun-13 09:50N 32°00' W 080°41'0 0.0
2018-Jun-13 09:26N 32°00' W 080°41'0 0.0
2018-Jun-13 08:56N 32°00' W 080°41'0 0.0
2018-Jun-13 08:14N 32°00' W 080°41'0 0.1
2018-Jun-13 07:56N 32°00' W 080°41'0 0.0
2018-Jun-13 07:26N 32°00' W 080°41'0 0.1
2018-Jun-13 06:38N 32°00' W 080°41'0 0.1
2018-Jun-13 06:20N 32°00' W 080°41'0 0.1
2018-Jun-13 05:56N 32°00' W 080°41'0 0.1
2018-Jun-13 05:26N 32°00' W 080°40'0 0.0
2018-Jun-13 04:56N 32°00' W 080°40'0 0.0
2018-Jun-13 04:26N 32°00' W 080°40'0 0.0
2018-Jun-13 03:44N 32°00' W 080°40'0 0.0
2018-Jun-13 03:26N 32°00' W 080°40'0 0.0
2018-Jun-13 02:50N 32°00' W 080°40'0 0.0
2018-Jun-13 02:26N 32°00' W 080°40'0 0.0
2018-Jun-13 01:56N 32°00' W 080°40'0 0.1
2018-Jun-13 01:26N 32°00' W 080°40'0 0.1
2018-Jun-13 00:57N 32°00' W 080°41'3 5.9
2018-Jun-13 00:30N 32°01' W 080°37'1411.2
2018-Jun-12 23:17N 32°01' W 080°21'412.6
2018-Jun-12 22:57N 32°02' W 080°17'356 9.3
2018-Jun-11 08:45N 36°59' W 076°19'311.0
2018-Jun-11 08:30N 36°57' W 076°21'0 0.1
2018-Jun-11 02:02N 36°57' W 076°21'0 0.1
2018-Jun-11 01:56N 36°57' W 076°21'0 0.4
2018-Jun-11 01:27N 36°58' W 076°21'4 7.8
2018-Jun-11 01:00N 36°54' W 076°20'4 8.9
2018-Jun-11 00:30N 36°50' W 076°18'3 5.0
2018-Jun-11 00:00N 36°48' W 076°18'1 2.0
2018-Jun-10 23:30N 36°47' W 076°18'0 0.0
2018-Jun-10 23:00N 36°47' W 076°18'0 0.0
2018-Jun-10 22:30N 36°47' W 076°18'0 0.0
2018-Jun-10 22:00N 36°47' W 076°18'0 0.0
2018-Jun-10 21:30N 36°47' W 076°18'0 0.0
2018-Jun-10 21:00N 36°47' W 076°18'0 0.0
2018-Jun-10 20:30N 36°47' W 076°18'0 0.0
2018-Jun-10 20:00N 36°47' W 076°18'0 0.0
2018-Jun-10 19:30N 36°47' W 076°18'0 0.0
2018-Jun-10 19:00N 36°47' W 076°18'0 0.0
2018-Jun-10 18:30N 36°47' W 076°18'0 0.0
2018-Jun-10 18:00N 36°47' W 076°18'0 0.0
2018-Jun-10 17:30N 36°47' W 076°18'0 0.0
2018-Jun-10 17:00N 36°47' W 076°18'0 0.0
2018-Jun-10 16:30N 36°47' W 076°18'0 0.0
2018-Jun-10 16:00N 36°47' W 076°18'0 0.0
2018-Jun-10 15:30N 36°47' W 076°18'0 0.0
2018-Jun-10 15:00N 36°47' W 076°18'0 0.0
2018-Jun-10 14:30N 36°47' W 076°18'0 0.0
2018-Jun-10 13:30N 36°47' W 076°18'0 0.0
2018-Jun-10 13:00N 36°47' W 076°18'0 0.0
2018-Jun-10 12:30N 36°47' W 076°18'0 0.0
2018-Jun-10 12:00N 36°47' W 076°18'0 0.0
2018-Jun-10 11:30N 36°47' W 076°18'0 0.0
2018-Jun-10 11:00N 36°47' W 076°18'0 0.0
2018-Jun-10 10:30N 36°47' W 076°18'0 0.0
2018-Jun-10 10:00N 36°47' W 076°18'0 0.0
2018-Jun-10 09:30N 36°47' W 076°18'0 0.0
2018-Jun-10 09:00N 36°47' W 076°18'0 0.0
2018-Jun-10 08:30N 36°47' W 076°18'0 0.0
2018-Jun-10 08:00N 36°47' W 076°18'0 0.0
2018-Jun-10 07:30N 36°47' W 076°18'0 0.0
2018-Jun-10 07:00N 36°47' W 076°18'0 0.0
2018-Jun-10 06:30N 36°47' W 076°18'0 0.0
2018-Jun-10 06:00N 36°47' W 076°18'0 0.0
2018-Jun-10 05:30N 36°47' W 076°18'0 0.0
2018-Jun-10 05:00N 36°47' W 076°18'0 0.0
2018-Jun-10 04:30N 36°47' W 076°18'0 0.0
2018-Jun-10 04:00N 36°47' W 076°18'0 0.0
2018-Jun-10 03:30N 36°47' W 076°18'0 0.0
2018-Jun-10 03:00N 36°47' W 076°18'0 0.0
2018-Jun-10 02:30N 36°47' W 076°18'0 0.0
2018-Jun-10 01:57N 36°47' W 076°18'0 0.0
2018-Jun-10 01:30N 36°47' W 076°18'0 0.0
2018-Jun-10 01:00N 36°47' W 076°18'0 0.0
2018-Jun-10 00:30N 36°47' W 076°18'0 0.0
2018-Jun-10 00:00N 36°47' W 076°18'0 0.0
2018-Jun-09 23:30N 36°47' W 076°18'0 0.0
2018-Jun-09 23:00N 36°47' W 076°18'0 0.0
2018-Jun-09 22:30N 36°47' W 076°18'0 0.0
2018-Jun-09 22:00N 36°47' W 076°18'0 0.0
2018-Jun-09 21:30N 36°47' W 076°18'0 0.0
2018-Jun-09 21:00N 36°47' W 076°18'0 0.0
2018-Jun-09 20:30N 36°47' W 076°18'0 0.0
2018-Jun-09 20:00N 36°47' W 076°18'0 0.0
2018-Jun-09 19:30N 36°47' W 076°18'0 0.0
2018-Jun-09 19:00N 36°47' W 076°18'0 0.0
2018-Jun-09 18:30N 36°47' W 076°18'0 0.0
2018-Jun-09 18:00N 36°47' W 076°18'0 0.0
2018-Jun-09 17:30N 36°47' W 076°18'0 0.0
2018-Jun-09 17:00N 36°47' W 076°18'0 0.0
2018-Jun-09 16:30N 36°47' W 076°18'0 0.0
2018-Jun-09 16:00N 36°47' W 076°18'0 0.0
2018-Jun-09 15:30N 36°47' W 076°18'0 0.0
2018-Jun-09 14:30N 36°47' W 076°18'0 0.0
2018-Jun-09 14:00N 36°47' W 076°18'0 0.0
2018-Jun-09 13:30N 36°47' W 076°18'0 0.0
2018-Jun-09 13:00N 36°47' W 076°18'0 0.0
2018-Jun-09 12:30N 36°47' W 076°18'0 0.0
2018-Jun-09 12:00N 36°47' W 076°18'0 0.0
2018-Jun-09 11:30N 36°47' W 076°18'0 0.0
2018-Jun-09 11:00N 36°47' W 076°18'0 0.0
2018-Jun-09 10:30N 36°47' W 076°18'0 0.0
2018-Jun-09 10:00N 36°47' W 076°18'0 0.0
2018-Jun-09 09:30N 36°47' W 076°18'0 0.0
2018-Jun-09 09:00N 36°47' W 076°18'0 0.0
2018-Jun-09 08:30N 36°47' W 076°18'0 0.0
2018-Jun-09 08:00N 36°47' W 076°18'0 0.0
2018-Jun-09 07:30N 36°47' W 076°18'0 0.0
2018-Jun-09 07:00N 36°47' W 076°18'0 0.0
2018-Jun-09 06:30N 36°47' W 076°18'0 0.0
2018-Jun-09 06:00N 36°47' W 076°18'0 0.0
2018-Jun-09 05:30N 36°47' W 076°18'0 0.0
2018-Jun-09 05:00N 36°47' W 076°18'0 0.0
2018-Jun-09 04:30N 36°47' W 076°18'0 0.0
2018-Jun-09 04:00N 36°47' W 076°18'0 0.0
2018-Jun-09 03:30N 36°47' W 076°18'0 0.0
2018-Jun-09 03:00N 36°47' W 076°18'0 0.0
2018-Jun-09 02:30N 36°47' W 076°18'0 0.0
2018-Jun-09 02:00N 36°47' W 076°18'0 0.0
2018-Jun-09 01:30N 36°47' W 076°18'0 0.0
2018-Jun-09 01:00N 36°47' W 076°18'0 0.0
2018-Jun-09 00:30N 36°47' W 076°18'0 0.0
2018-Jun-09 00:00N 36°47' W 076°18'0 0.0
2018-Jun-08 23:30N 36°47' W 076°18'0 0.0
2018-Jun-08 23:00N 36°47' W 076°18'0 0.0
2018-Jun-08 22:30N 36°47' W 076°18'0 0.0
2018-Jun-08 22:00N 36°47' W 076°18'0 0.0
2018-Jun-08 21:30N 36°47' W 076°18'0 0.0
2018-Jun-08 21:00N 36°47' W 076°18'0 0.0
2018-Jun-08 20:30N 36°47' W 076°18'0 0.0
2018-Jun-08 20:00N 36°47' W 076°18'0 0.0
2018-Jun-08 19:30N 36°47' W 076°18'0 0.0
2018-Jun-08 19:00N 36°47' W 076°18'0 0.0
2018-Jun-08 18:30N 36°47' W 076°18'0 0.0
2018-Jun-08 18:00N 36°47' W 076°18'0 0.0
2018-Jun-08 17:30N 36°47' W 076°18'0 0.0
2018-Jun-08 17:00N 36°47' W 076°18'0 0.0
2018-Jun-08 16:30N 36°47' W 076°18'0 0.0
2018-Jun-08 16:00N 36°47' W 076°18'0 0.0
2018-Jun-08 15:30N 36°47' W 076°18'0 0.0
2018-Jun-08 14:57N 36°47' W 076°18'0 0.0
2018-Jun-08 14:30N 36°47' W 076°18'0 0.0
2018-Jun-08 14:00N 36°47' W 076°18'0 0.0
2018-Jun-08 13:30N 36°47' W 076°18'0 0.0
2018-Jun-08 13:00N 36°47' W 076°18'0 0.0
2018-Jun-08 12:30N 36°47' W 076°18'0 0.0
2018-Jun-08 12:00N 36°47' W 076°18'0 0.0
2018-Jun-08 11:30N 36°47' W 076°18'0 0.0
2018-Jun-08 10:57N 36°47' W 076°18'0 0.0
2018-Jun-08 10:30N 36°47' W 076°18'0 0.0
2018-Jun-08 10:00N 36°47' W 076°18'0 0.0
2018-Jun-08 09:30N 36°47' W 076°18'0 0.0
2018-Jun-08 08:57N 36°47' W 076°18'0 0.0
2018-Jun-08 08:30N 36°47' W 076°18'0 0.0
2018-Jun-08 08:00N 36°47' W 076°18'0 0.0
2018-Jun-08 07:30N 36°47' W 076°18'0 0.0
2018-Jun-08 07:00N 36°47' W 076°18'0 0.0
2018-Jun-08 06:30N 36°47' W 076°18'0 0.0
2018-Jun-08 06:00N 36°47' W 076°18'0 0.0
2018-Jun-08 05:30N 36°47' W 076°18'0 0.0
2018-Jun-08 05:00N 36°47' W 076°18'0 0.0
2018-Jun-08 04:30N 36°47' W 076°18'0 0.0
2018-Jun-08 04:00N 36°47' W 076°18'0 0.0
2018-Jun-08 03:30N 36°47' W 076°18'0 0.0
2018-Jun-08 03:00N 36°47' W 076°18'0 0.0
2018-Jun-08 02:30N 36°47' W 076°18'0 0.0
2018-Jun-08 02:00N 36°47' W 076°18'0 0.0
2018-Jun-08 01:30N 36°47' W 076°18'0 0.0
2018-Jun-08 01:00N 36°47' W 076°18'0 0.0
2018-Jun-08 00:30N 36°47' W 076°18'0 0.0
2018-Jun-08 00:00N 36°47' W 076°18'0 0.0
2018-Jun-07 23:30N 36°47' W 076°18'0 0.0
2018-Jun-07 23:00N 36°47' W 076°18'0 0.0
2018-Jun-07 22:30N 36°47' W 076°18'0 0.0
2018-Jun-07 22:00N 36°47' W 076°18'0 0.0
2018-Jun-07 21:30N 36°47' W 076°18'0 0.0
2018-Jun-07 21:00N 36°47' W 076°18'0 0.0
2018-Jun-07 20:30N 36°47' W 076°18'0 0.0
2018-Jun-07 20:00N 36°47' W 076°18'0 0.0
2018-Jun-07 19:30N 36°47' W 076°18'1 1.2
2018-Jun-07 19:00N 36°47' W 076°18'3 5.1
2018-Jun-07 18:30N 36°49' W 076°17'3 5.4
2018-Jun-07 18:00N 36°52' W 076°19'4 8.5
2018-Jun-07 17:30N 36°56' W 076°20'34 8.3
2018-Jun-07 13:23N 37°28' W 076°07'1412.2
2018-Jun-07 12:12N 37°43' W 076°11'412.3
2018-Jun-07 11:53N 37°47' W 076°11'512.1
2018-Jun-07 11:30N 37°51' W 076°10'611.5
2018-Jun-07 10:56N 37°57' W 076°11'512.1
2018-Jun-07 10:29N 38°03' W 076°13'612.2
2018-Jun-07 10:00N 38°09' W 076°14'612.2
2018-Jun-07 09:30N 38°14' W 076°16'612.3
2018-Jun-07 09:00N 38°20' W 076°19'612.1
2018-Jun-07 08:30N 38°26' W 076°22'712.3
2018-Jun-07 07:58N 38°32' W 076°25'612.4
2018-Jun-07 07:30N 38°37' W 076°26'812.2
2018-Jun-07 06:52N 38°45' W 076°26'412.0
2018-Jun-07 06:30N 38°49' W 076°25'611.9
2018-Jun-07 06:00N 38°55' W 076°24'611.7
2018-Jun-07 05:30N 39°01' W 076°23'611.0
2018-Jun-07 05:00N 39°07' W 076°24'510.8
2018-Jun-07 04:30N 39°11' W 076°27'510.1
2018-Jun-07 04:00N 39°14' W 076°33'2 4.8
2018-Jun-07 03:30N 39°16' W 076°34'0 0.0
2018-Jun-07 03:00N 39°16' W 076°34'0 0.0
2018-Jun-07 02:30N 39°16' W 076°34'0 0.0
2018-Jun-07 02:00N 39°16' W 076°34'0 0.0
2018-Jun-07 01:30N 39°16' W 076°34'0 0.0
2018-Jun-07 01:00N 39°16' W 076°34'0 0.0
2018-Jun-07 00:30N 39°16' W 076°34'0 0.0
2018-Jun-07 00:00N 39°16' W 076°34'0 0.0
2018-Jun-06 23:30N 39°16' W 076°34'0 0.0
2018-Jun-06 23:00N 39°16' W 076°34'0 0.0
2018-Jun-06 22:30N 39°16' W 076°34'0 0.0
2018-Jun-06 22:00N 39°16' W 076°34'0 0.0
2018-Jun-06 21:30N 39°16' W 076°34'0 0.0
2018-Jun-06 21:00N 39°16' W 076°34'0 0.0
2018-Jun-06 20:30N 39°16' W 076°34'0 0.0
2018-Jun-06 20:00N 39°16' W 076°34'0 0.0
2018-Jun-06 19:30N 39°16' W 076°34'0 0.0
2018-Jun-06 19:00N 39°16' W 076°34'0 0.0
2018-Jun-06 18:30N 39°16' W 076°34'0 0.0
2018-Jun-06 18:00N 39°16' W 076°34'0 0.0
2018-Jun-06 17:30N 39°16' W 076°34'0 0.0
2018-Jun-06 17:00N 39°16' W 076°34'0 0.0
2018-Jun-06 16:30N 39°16' W 076°34'0 0.0
2018-Jun-06 16:00N 39°16' W 076°34'0 0.0
2018-Jun-06 15:30N 39°16' W 076°34'0 0.0
2018-Jun-06 15:00N 39°16' W 076°34'0 0.0
2018-Jun-06 14:30N 39°16' W 076°34'0 0.0
2018-Jun-06 14:00N 39°16' W 076°34'0 0.0
2018-Jun-06 13:30N 39°16' W 076°34'0 0.0
2018-Jun-06 13:00N 39°16' W 076°34'0 0.0
2018-Jun-06 12:30N 39°16' W 076°34'0 0.0
2018-Jun-06 12:00N 39°16' W 076°34'0 0.0
2018-Jun-06 11:30N 39°16' W 076°34'0 0.0
2018-Jun-06 11:00N 39°16' W 076°34'0 0.0
2018-Jun-06 10:30N 39°16' W 076°34'0 0.0
2018-Jun-06 10:00N 39°16' W 076°34'0 0.0
2018-Jun-06 09:30N 39°16' W 076°34'0 0.0
2018-Jun-06 09:00N 39°16' W 076°34'0 0.0
2018-Jun-06 08:30N 39°16' W 076°34'0 0.0
2018-Jun-06 08:00N 39°16' W 076°34'0 0.0
2018-Jun-06 07:30N 39°16' W 076°34'0 0.0
2018-Jun-06 07:00N 39°16' W 076°34'0 0.0
2018-Jun-06 06:30N 39°16' W 076°34'0 0.0
2018-Jun-06 06:00N 39°16' W 076°34'0 0.0
2018-Jun-06 05:30N 39°16' W 076°34'0 0.0
2018-Jun-06 05:00N 39°16' W 076°34'0 0.0
2018-Jun-06 04:30N 39°16' W 076°34'0 0.0
2018-Jun-06 04:00N 39°16' W 076°34'0 0.0
2018-Jun-06 03:30N 39°16' W 076°34'0 0.0
2018-Jun-06 03:00N 39°16' W 076°34'0 0.0
2018-Jun-06 02:30N 39°16' W 076°34'0 0.0
2018-Jun-06 02:00N 39°16' W 076°34'0 0.0
2018-Jun-06 01:30N 39°16' W 076°34'0 0.0
2018-Jun-06 01:00N 39°16' W 076°34'0 0.0
2018-Jun-06 00:30N 39°16' W 076°34'0 0.0
2018-Jun-06 00:00N 39°16' W 076°34'0 0.0
2018-Jun-05 23:30N 39°16' W 076°34'0 0.0
2018-Jun-05 23:00N 39°16' W 076°34'0 0.0
2018-Jun-05 22:30N 39°16' W 076°34'0 0.0
2018-Jun-05 22:00N 39°16' W 076°34'0 0.0
2018-Jun-05 21:30N 39°16' W 076°34'0 0.0
2018-Jun-05 21:00N 39°16' W 076°34'0 0.0
2018-Jun-05 20:30N 39°16' W 076°34'0 0.0
2018-Jun-05 20:00N 39°16' W 076°34'0 0.0
2018-Jun-05 19:30N 39°16' W 076°34'0 0.0
2018-Jun-05 19:00N 39°16' W 076°34'0 0.0
2018-Jun-05 18:30N 39°16' W 076°34'0 0.0
2018-Jun-05 18:00N 39°16' W 076°34'0 0.0
2018-Jun-05 17:30N 39°16' W 076°34'0 0.0
2018-Jun-05 17:00N 39°16' W 076°34'0 0.0
2018-Jun-05 16:30N 39°16' W 076°34'0 0.0
2018-Jun-05 16:00N 39°16' W 076°34'0 0.0
2018-Jun-05 15:30N 39°16' W 076°34'0 0.0
2018-Jun-05 15:00N 39°16' W 076°34'0 0.0
2018-Jun-05 14:30N 39°16' W 076°34'0 0.0
2018-Jun-05 14:00N 39°16' W 076°34'0 0.0
2018-Jun-05 13:30N 39°16' W 076°34'0 0.0
2018-Jun-05 13:00N 39°16' W 076°34'0 0.0
2018-Jun-05 12:30N 39°16' W 076°34'0 0.0
2018-Jun-05 12:00N 39°16' W 076°34'0 0.0
2018-Jun-05 11:30N 39°16' W 076°34'0 0.0
2018-Jun-05 11:00N 39°16' W 076°34'0 0.0
2018-Jun-05 10:30N 39°16' W 076°34'0 0.0
2018-Jun-05 10:00N 39°16' W 076°34'0 0.0
2018-Jun-05 09:30N 39°16' W 076°34'0 0.0
2018-Jun-05 09:00N 39°16' W 076°34'0 0.0
2018-Jun-05 08:30N 39°16' W 076°34'0 0.0
2018-Jun-05 08:00N 39°16' W 076°34'0 0.0
2018-Jun-05 07:30N 39°16' W 076°34'0 0.0
2018-Jun-05 07:00N 39°16' W 076°34'0 0.0
2018-Jun-05 06:30N 39°16' W 076°34'0 0.0
2018-Jun-05 06:00N 39°16' W 076°34'0 0.0
2018-Jun-05 05:30N 39°16' W 076°34'0 0.0
2018-Jun-05 05:00N 39°16' W 076°34'0 0.0
2018-Jun-05 04:30N 39°16' W 076°34'0 0.0
2018-Jun-05 04:00N 39°16' W 076°34'0 0.0
2018-Jun-05 03:30N 39°16' W 076°34'0 0.0
2018-Jun-05 03:00N 39°16' W 076°34'0 0.0
2018-Jun-05 02:30N 39°16' W 076°34'0 0.0
2018-Jun-05 02:00N 39°16' W 076°34'0 0.0
2018-Jun-05 01:30N 39°16' W 076°34'  
Track history (hours):
 
Tides and Currents Weather Stations Pressure Air Temp Water Temp Dewpoint Dewpoint Depression Visibility Wind Speed Wind Dir Waves Ship Positions

Praetorius

Last reported at 2018-Jun-15 01:03 UTC. Time now 2018-Jun-21 17:36 UTC.
Position N 31°42' W 080°27'.

Length 169 m; draft 5.3 m.

Type: Ship. MMSI: 212942000.

Date/timePositionNaut miles runAvg speedWind from/ knotsBaromVisibWave heightAir tempDewpointWater temp
2018-Jun-15 01:03N 31°42' W 080°27'112.1
2018-Jun-15 00:58N 31°43' W 080°28'611.9
2018-Jun-15 00:30N 31°48' W 080°32'1011.8
2018-Jun-14 23:40N 31°55' W 080°39'211.8
2018-Jun-14 23:30N 31°57' W 080°41'611.7
2018-Jun-14 23:00N 31°60' W 080°47'5 9.7
2018-Jun-14 22:30N 32°02' W 080°52'4 8.0
2018-Jun-14 22:00N 32°03' W 080°56'4 8.4
2018-Jun-14 21:30N 32°06' W 080°60'4 7.3
2018-Jun-14 21:00N 32°05' W 081°04'0 0.1
2018-Jun-14 20:23N 32°05' W 081°04'0 0.0
2018-Jun-14 19:59N 32°05' W 081°04'0 0.0
2018-Jun-14 19:26N 32°05' W 081°04'0 0.0
2018-Jun-14 18:59N 32°05' W 081°04'0 0.0
2018-Jun-14 18:17N 32°05' W 081°04'0 0.0
2018-Jun-14 17:59N 32°05' W 081°04'0 0.0
2018-Jun-14 17:17N 32°05' W 081°04'0 0.0
2018-Jun-14 16:53N 32°05' W 081°04'0 0.0
2018-Jun-14 16:29N 32°05' W 081°04'0 0.0
2018-Jun-14 15:59N 32°05' W 081°04'0 0.0
2018-Jun-14 15:29N 32°05' W 081°04'0 0.0
2018-Jun-14 14:59N 32°05' W 081°04'0 0.0
2018-Jun-14 14:29N 32°05' W 081°04'0 0.0
2018-Jun-14 13:59N 32°05' W 081°04'0 0.0
2018-Jun-14 13:29N 32°05' W 081°04'0 0.0
2018-Jun-14 12:59N 32°05' W 081°04'0 0.0
2018-Jun-14 12:29N 32°05' W 081°04'0 0.0
2018-Jun-14 11:59N 32°05' W 081°04'0 0.0
2018-Jun-14 11:29N 32°05' W 081°04'0 0.0
2018-Jun-14 10:59N 32°05' W 081°04'0 0.0
2018-Jun-14 10:29N 32°05' W 081°04'0 0.0
2018-Jun-14 09:59N 32°05' W 081°04'0 0.0
2018-Jun-14 09:29N 32°05' W 081°04'0 0.0
2018-Jun-14 08:59N 32°05' W 081°04'0 0.0
2018-Jun-14 08:29N 32°05' W 081°04'0 0.6
2018-Jun-14 08:00N 32°05' W 081°04'3 6.4
2018-Jun-14 07:30N 32°06' W 081°00'4 8.4
2018-Jun-14 07:00N 32°03' W 080°56'4 8.1
2018-Jun-14 06:30N 32°02' W 080°52'4 8.6
2018-Jun-14 06:00N 31°60' W 080°47'5 9.7
2018-Jun-14 05:30N 31°58' W 080°42'2 3.7
2018-Jun-14 05:00N 31°59' W 080°41'2 3.0
2018-Jun-14 04:29N 32°00' W 080°40'0 0.0
2018-Jun-14 03:53N 32°00' W 080°40'0 0.0
2018-Jun-14 03:29N 32°00' W 080°40'0 0.0
2018-Jun-14 02:59N 32°00' W 080°40'0 0.0
2018-Jun-14 02:26N 32°00' W 080°40'0 0.0
2018-Jun-14 01:59N 32°00' W 080°40'0 0.0
2018-Jun-14 01:29N 32°00' W 080°40'0 0.0
2018-Jun-14 00:59N 32°00' W 080°40'0 0.1
2018-Jun-14 00:29N 32°00' W 080°41'0 0.1
2018-Jun-13 23:59N 32°00' W 080°41'0 0.1
2018-Jun-13 23:29N 32°00' W 080°41'0 0.0
2018-Jun-13 22:59N 32°00' W 080°41'0 0.0
2018-Jun-13 22:26N 32°00' W 080°41'0 0.0
2018-Jun-13 21:50N 32°00' W 080°41'0 0.0
2018-Jun-13 21:29N 32°00' W 080°41'0 0.0
2018-Jun-13 20:56N 32°00' W 080°41'0 0.1
2018-Jun-13 19:14N 32°00' W 080°41'0 0.2
2018-Jun-13 18:56N 32°00' W 080°41'0 0.2
2018-Jun-13 18:26N 32°00' W 080°40'0 0.0
2018-Jun-13 17:56N 32°00' W 080°40'0 0.0
2018-Jun-13 17:20N 32°00' W 080°40'0 0.0
2018-Jun-13 16:56N 32°00' W 080°40'0 0.0
2018-Jun-13 16:26N 32°00' W 080°40'0 0.0
2018-Jun-13 15:56N 32°00' W 080°40'0 0.0
2018-Jun-13 14:56N 32°00' W 080°40'0 0.0
2018-Jun-13 14:26N 32°00' W 080°40'0 0.1
2018-Jun-13 13:50N 32°00' W 080°40'0 0.1
2018-Jun-13 13:14N 32°00' W 080°41'0 0.1
2018-Jun-13 12:56N 32°00' W 080°41'0 0.1
2018-Jun-13 12:26N 32°00' W 080°41'0 0.0
2018-Jun-13 11:56N 32°00' W 080°41'0 0.1
2018-Jun-13 11:26N 32°00' W 080°41'0 0.0
2018-Jun-13 10:56N 32°00' W 080°41'0 0.0
2018-Jun-13 10:20N 32°00' W 080°41'0 0.0
2018-Jun-13 09:50N 32°00' W 080°41'0 0.0
2018-Jun-13 09:26N 32°00' W 080°41'0 0.0
2018-Jun-13 08:56N 32°00' W 080°41'0 0.0
2018-Jun-13 08:14N 32°00' W 080°41'0 0.1
2018-Jun-13 07:56N 32°00' W 080°41'0 0.0
2018-Jun-13 07:26N 32°00' W 080°41'0 0.1
2018-Jun-13 06:38N 32°00' W 080°41'0 0.1
2018-Jun-13 06:20N 32°00' W 080°41'0 0.1
2018-Jun-13 05:56N 32°00' W 080°41'0 0.1
2018-Jun-13 05:26N 32°00' W 080°40'0 0.0
2018-Jun-13 04:56N 32°00' W 080°40'0 0.0
2018-Jun-13 04:26N 32°00' W 080°40'0 0.0
2018-Jun-13 03:44N 32°00' W 080°40'0 0.0
2018-Jun-13 03:26N 32°00' W 080°40'0 0.0
2018-Jun-13 02:50N 32°00' W 080°40'0 0.0
2018-Jun-13 02:26N 32°00' W 080°40'0 0.0
2018-Jun-13 01:56N 32°00' W 080°40'0 0.1
2018-Jun-13 01:26N 32°00' W 080°40'0 0.1
2018-Jun-13 00:57N 32°00' W 080°41'3 5.9
2018-Jun-13 00:30N 32°01' W 080°37'1411.2
2018-Jun-12 23:17N 32°01' W 080°21'412.6
2018-Jun-12 22:57N 32°02' W 080°17'356 9.3
2018-Jun-11 08:45N 36°59' W 076°19'311.0
2018-Jun-11 08:30N 36°57' W 076°21'0 0.1
2018-Jun-11 02:02N 36°57' W 076°21'0 0.1
2018-Jun-11 01:56N 36°57' W 076°21'0 0.4
2018-Jun-11 01:27N 36°58' W 076°21'4 7.8
2018-Jun-11 01:00N 36°54' W 076°20'4 8.9
2018-Jun-11 00:30N 36°50' W 076°18'3 5.0
2018-Jun-11 00:00N 36°48' W 076°18'1 2.0
2018-Jun-10 23:30N 36°47' W 076°18'0 0.0
2018-Jun-10 23:00N 36°47' W 076°18'0 0.0
2018-Jun-10 22:30N 36°47' W 076°18'0 0.0
2018-Jun-10 22:00N 36°47' W 076°18'0 0.0
2018-Jun-10 21:30N 36°47' W 076°18'0 0.0
2018-Jun-10 21:00N 36°47' W 076°18'0 0.0
2018-Jun-10 20:30N 36°47' W 076°18'0 0.0
2018-Jun-10 20:00N 36°47' W 076°18'0 0.0
2018-Jun-10 19:30N 36°47' W 076°18'0 0.0
2018-Jun-10 19:00N 36°47' W 076°18'0 0.0
2018-Jun-10 18:30N 36°47' W 076°18'0 0.0
2018-Jun-10 18:00N 36°47' W 076°18'0 0.0
2018-Jun-10 17:30N 36°47' W 076°18'0 0.0
2018-Jun-10 17:00N 36°47' W 076°18'0 0.0
2018-Jun-10 16:30N 36°47' W 076°18'0 0.0
2018-Jun-10 16:00N 36°47' W 076°18'0 0.0
2018-Jun-10 15:30N 36°47' W 076°18'0 0.0
2018-Jun-10 15:00N 36°47' W 076°18'0 0.0
2018-Jun-10 14:30N 36°47' W 076°18'0 0.0
2018-Jun-10 13:30N 36°47' W 076°18'0 0.0
2018-Jun-10 13:00N 36°47' W 076°18'0 0.0
2018-Jun-10 12:30N 36°47' W 076°18'0 0.0
2018-Jun-10 12:00N 36°47' W 076°18'0 0.0
2018-Jun-10 11:30N 36°47' W 076°18'0 0.0
2018-Jun-10 11:00N 36°47' W 076°18'0 0.0
2018-Jun-10 10:30N 36°47' W 076°18'0 0.0
2018-Jun-10 10:00N 36°47' W 076°18'0 0.0
2018-Jun-10 09:30N 36°47' W 076°18'0 0.0
2018-Jun-10 09:00N 36°47' W 076°18'0 0.0
2018-Jun-10 08:30N 36°47' W 076°18'0 0.0
2018-Jun-10 08:00N 36°47' W 076°18'0 0.0
2018-Jun-10 07:30N 36°47' W 076°18'0 0.0
2018-Jun-10 07:00N 36°47' W 076°18'0 0.0
2018-Jun-10 06:30N 36°47' W 076°18'0 0.0
2018-Jun-10 06:00N 36°47' W 076°18'0 0.0
2018-Jun-10 05:30N 36°47' W 076°18'0 0.0
2018-Jun-10 05:00N 36°47' W 076°18'0 0.0
2018-Jun-10 04:30N 36°47' W 076°18'0 0.0
2018-Jun-10 04:00N 36°47' W 076°18'0 0.0
2018-Jun-10 03:30N 36°47' W 076°18'0 0.0
2018-Jun-10 03:00N 36°47' W 076°18'0 0.0
2018-Jun-10 02:30N 36°47' W 076°18'0 0.0
2018-Jun-10 01:57N 36°47' W 076°18'0 0.0
2018-Jun-10 01:30N 36°47' W 076°18'0 0.0
2018-Jun-10 01:00N 36°47' W 076°18'0 0.0
2018-Jun-10 00:30N 36°47' W 076°18'0 0.0
2018-Jun-10 00:00N 36°47' W 076°18'0 0.0
2018-Jun-09 23:30N 36°47' W 076°18'0 0.0
2018-Jun-09 23:00N 36°47' W 076°18'0 0.0
2018-Jun-09 22:30N 36°47' W 076°18'0 0.0
2018-Jun-09 22:00N 36°47' W 076°18'0 0.0
2018-Jun-09 21:30N 36°47' W 076°18'0 0.0
2018-Jun-09 21:00N 36°47' W 076°18'0 0.0
2018-Jun-09 20:30N 36°47' W 076°18'0 0.0
2018-Jun-09 20:00N 36°47' W 076°18'0 0.0
2018-Jun-09 19:30N 36°47' W 076°18'0 0.0
2018-Jun-09 19:00N 36°47' W 076°18'0 0.0
2018-Jun-09 18:30N 36°47' W 076°18'0 0.0
2018-Jun-09 18:00N 36°47' W 076°18'0 0.0
2018-Jun-09 17:30N 36°47' W 076°18'0 0.0
2018-Jun-09 17:00N 36°47' W 076°18'0 0.0
2018-Jun-09 16:30N 36°47' W 076°18'0 0.0
2018-Jun-09 16:00N 36°47' W 076°18'0 0.0
2018-Jun-09 15:30N 36°47' W 076°18'0 0.0
2018-Jun-09 14:30N 36°47' W 076°18'0 0.0
2018-Jun-09 14:00N 36°47' W 076°18'0 0.0
2018-Jun-09 13:30N 36°47' W 076°18'0 0.0
2018-Jun-09 13:00N 36°47' W 076°18'0 0.0
2018-Jun-09 12:30N 36°47' W 076°18'0 0.0
2018-Jun-09 12:00N 36°47' W 076°18'0 0.0
2018-Jun-09 11:30N 36°47' W 076°18'0 0.0
2018-Jun-09 11:00N 36°47' W 076°18'0 0.0
2018-Jun-09 10:30N 36°47' W 076°18'0 0.0
2018-Jun-09 10:00N 36°47' W 076°18'0 0.0
2018-Jun-09 09:30N 36°47' W 076°18'0 0.0
2018-Jun-09 09:00N 36°47' W 076°18'0 0.0
2018-Jun-09 08:30N 36°47' W 076°18'0 0.0
2018-Jun-09 08:00N 36°47' W 076°18'0 0.0
2018-Jun-09 07:30N 36°47' W 076°18'0 0.0
2018-Jun-09 07:00N 36°47' W 076°18'0 0.0
2018-Jun-09 06:30N 36°47' W 076°18'0 0.0
2018-Jun-09 06:00N 36°47' W 076°18'0 0.0
2018-Jun-09 05:30N 36°47' W 076°18'0 0.0
2018-Jun-09 05:00N 36°47' W 076°18'0 0.0
2018-Jun-09 04:30N 36°47' W 076°18'0 0.0
2018-Jun-09 04:00N 36°47' W 076°18'0 0.0
2018-Jun-09 03:30N 36°47' W 076°18'0 0.0
2018-Jun-09 03:00N 36°47' W 076°18'0 0.0
2018-Jun-09 02:30N 36°47' W 076°18'0 0.0
2018-Jun-09 02:00N 36°47' W 076°18'0 0.0
2018-Jun-09 01:30N 36°47' W 076°18'0 0.0
2018-Jun-09 01:00N 36°47' W 076°18'0 0.0
2018-Jun-09 00:30N 36°47' W 076°18'0 0.0
2018-Jun-09 00:00N 36°47' W 076°18'0 0.0
2018-Jun-08 23:30N 36°47' W 076°18'0 0.0
2018-Jun-08 23:00N 36°47' W 076°18'0 0.0
2018-Jun-08 22:30N 36°47' W 076°18'0 0.0
2018-Jun-08 22:00N 36°47' W 076°18'0 0.0
2018-Jun-08 21:30N 36°47' W 076°18'0 0.0
2018-Jun-08 21:00N 36°47' W 076°18'0 0.0
2018-Jun-08 20:30N 36°47' W 076°18'0 0.0
2018-Jun-08 20:00N 36°47' W 076°18'0 0.0
2018-Jun-08 19:30N 36°47' W 076°18'0 0.0
2018-Jun-08 19:00N 36°47' W 076°18'0 0.0
2018-Jun-08 18:30N 36°47' W 076°18'0 0.0
2018-Jun-08 18:00N 36°47' W 076°18'0 0.0
2018-Jun-08 17:30N 36°47' W 076°18'0 0.0
2018-Jun-08 17:00N 36°47' W 076°18'0 0.0
2018-Jun-08 16:30N 36°47' W 076°18'0 0.0
2018-Jun-08 16:00N 36°47' W 076°18'0 0.0
2018-Jun-08 15:30N 36°47' W 076°18'0 0.0
2018-Jun-08 14:57N 36°47' W 076°18'0 0.0
2018-Jun-08 14:30N 36°47' W 076°18'0 0.0
2018-Jun-08 14:00N 36°47' W 076°18'0 0.0
2018-Jun-08 13:30N 36°47' W 076°18'0 0.0
2018-Jun-08 13:00N 36°47' W 076°18'0 0.0
2018-Jun-08 12:30N 36°47' W 076°18'0 0.0
2018-Jun-08 12:00N 36°47' W 076°18'0 0.0
2018-Jun-08 11:30N 36°47' W 076°18'0 0.0
2018-Jun-08 10:57N 36°47' W 076°18'0 0.0
2018-Jun-08 10:30N 36°47' W 076°18'0 0.0
2018-Jun-08 10:00N 36°47' W 076°18'0 0.0
2018-Jun-08 09:30N 36°47' W 076°18'0 0.0
2018-Jun-08 08:57N 36°47' W 076°18'0 0.0
2018-Jun-08 08:30N 36°47' W 076°18'0 0.0
2018-Jun-08 08:00N 36°47' W 076°18'0 0.0
2018-Jun-08 07:30N 36°47' W 076°18'0 0.0
2018-Jun-08 07:00N 36°47' W 076°18'0 0.0
2018-Jun-08 06:30N 36°47' W 076°18'0 0.0
2018-Jun-08 06:00N 36°47' W 076°18'0 0.0
2018-Jun-08 05:30N 36°47' W 076°18'0 0.0
2018-Jun-08 05:00N 36°47' W 076°18'0 0.0
2018-Jun-08 04:30N 36°47' W 076°18'0 0.0
2018-Jun-08 04:00N 36°47' W 076°18'0 0.0
2018-Jun-08 03:30N 36°47' W 076°18'0 0.0
2018-Jun-08 03:00N 36°47' W 076°18'0 0.0
2018-Jun-08 02:30N 36°47' W 076°18'0 0.0
2018-Jun-08 02:00N 36°47' W 076°18'0 0.0
2018-Jun-08 01:30N 36°47' W 076°18'0 0.0
2018-Jun-08 01:00N 36°47' W 076°18'0 0.0
2018-Jun-08 00:30N 36°47' W 076°18'0 0.0
2018-Jun-08 00:00N 36°47' W 076°18'0 0.0
2018-Jun-07 23:30N 36°47' W 076°18'0 0.0
2018-Jun-07 23:00N 36°47' W 076°18'0 0.0
2018-Jun-07 22:30N 36°47' W 076°18'0 0.0
2018-Jun-07 22:00N 36°47' W 076°18'0 0.0
2018-Jun-07 21:30N 36°47' W 076°18'0 0.0
2018-Jun-07 21:00N 36°47' W 076°18'0 0.0
2018-Jun-07 20:30N 36°47' W 076°18'0 0.0
2018-Jun-07 20:00N 36°47' W 076°18'0 0.0
2018-Jun-07 19:30N 36°47' W 076°18'1 1.2
2018-Jun-07 19:00N 36°47' W 076°18'3 5.1
2018-Jun-07 18:30N 36°49' W 076°17'3 5.4
2018-Jun-07 18:00N 36°52' W 076°19'4 8.5
2018-Jun-07 17:30N 36°56' W 076°20'34 8.3
2018-Jun-07 13:23N 37°28' W 076°07'1412.2
2018-Jun-07 12:12N 37°43' W 076°11'412.3
2018-Jun-07 11:53N 37°47' W 076°11'512.1
2018-Jun-07 11:30N 37°51' W 076°10'611.5
2018-Jun-07 10:56N 37°57' W 076°11'512.1
2018-Jun-07 10:29N 38°03' W 076°13'612.2
2018-Jun-07 10:00N 38°09' W 076°14'612.2
2018-Jun-07 09:30N 38°14' W 076°16'612.3
2018-Jun-07 09:00N 38°20' W 076°19'612.1
2018-Jun-07 08:30N 38°26' W 076°22'712.3
2018-Jun-07 07:58N 38°32' W 076°25'612.4
2018-Jun-07 07:30N 38°37' W 076°26'812.2
2018-Jun-07 06:52N 38°45' W 076°26'412.0
2018-Jun-07 06:30N 38°49' W 076°25'611.9
2018-Jun-07 06:00N 38°55' W 076°24'611.7
2018-Jun-07 05:30N 39°01' W 076°23'611.0
2018-Jun-07 05:00N 39°07' W 076°24'510.8
2018-Jun-07 04:30N 39°11' W 076°27'510.1
2018-Jun-07 04:00N 39°14' W 076°33'2 4.8
2018-Jun-07 03:30N 39°16' W 076°34'0 0.0
2018-Jun-07 03:00N 39°16' W 076°34'0 0.0
2018-Jun-07 02:30N 39°16' W 076°34'0 0.0
2018-Jun-07 02:00N 39°16' W 076°34'0 0.0
2018-Jun-07 01:30N 39°16' W 076°34'0 0.0
2018-Jun-07 01:00N 39°16' W 076°34'0 0.0
2018-Jun-07 00:30N 39°16' W 076°34'0 0.0
2018-Jun-07 00:00N 39°16' W 076°34'0 0.0
2018-Jun-06 23:30N 39°16' W 076°34'0 0.0
2018-Jun-06 23:00N 39°16' W 076°34'0 0.0
2018-Jun-06 22:30N 39°16' W 076°34'0 0.0
2018-Jun-06 22:00N 39°16' W 076°34'0 0.0
2018-Jun-06 21:30N 39°16' W 076°34'0 0.0
2018-Jun-06 21:00N 39°16' W 076°34'0 0.0
2018-Jun-06 20:30N 39°16' W 076°34'0 0.0
2018-Jun-06 20:00N 39°16' W 076°34'0 0.0
2018-Jun-06 19:30N 39°16' W 076°34'0 0.0
2018-Jun-06 19:00N 39°16' W 076°34'0 0.0
2018-Jun-06 18:30N 39°16' W 076°34'0 0.0
2018-Jun-06 18:00N 39°16' W 076°34'0 0.0
2018-Jun-06 17:30N 39°16' W 076°34'0 0.0
2018-Jun-06 17:00N 39°16' W 076°34'0 0.0
2018-Jun-06 16:30N 39°16' W 076°34'0 0.0
2018-Jun-06 16:00N 39°16' W 076°34'0 0.0
2018-Jun-06 15:30N 39°16' W 076°34'0 0.0
2018-Jun-06 15:00N 39°16' W 076°34'0 0.0
2018-Jun-06 14:30N 39°16' W 076°34'0 0.0
2018-Jun-06 14:00N 39°16' W 076°34'0 0.0
2018-Jun-06 13:30N 39°16' W 076°34'0 0.0
2018-Jun-06 13:00N 39°16' W 076°34'0 0.0
2018-Jun-06 12:30N 39°16' W 076°34'0 0.0
2018-Jun-06 12:00N 39°16' W 076°34'0 0.0
2018-Jun-06 11:30N 39°16' W 076°34'0 0.0
2018-Jun-06 11:00N 39°16' W 076°34'0 0.0
2018-Jun-06 10:30N 39°16' W 076°34'0 0.0
2018-Jun-06 10:00N 39°16' W 076°34'0 0.0
2018-Jun-06 09:30N 39°16' W 076°34'0 0.0
2018-Jun-06 09:00N 39°16' W 076°34'0 0.0
2018-Jun-06 08:30N 39°16' W 076°34'0 0.0
2018-Jun-06 08:00N 39°16' W 076°34'0 0.0
2018-Jun-06 07:30N 39°16' W 076°34'0 0.0
2018-Jun-06 07:00N 39°16' W 076°34'0 0.0
2018-Jun-06 06:30N 39°16' W 076°34'0 0.0
2018-Jun-06 06:00N 39°16' W 076°34'0 0.0
2018-Jun-06 05:30N 39°16' W 076°34'0 0.0
2018-Jun-06 05:00N 39°16' W 076°34'0 0.0
2018-Jun-06 04:30N 39°16' W 076°34'0 0.0
2018-Jun-06 04:00N 39°16' W 076°34'0 0.0
2018-Jun-06 03:30N 39°16' W 076°34'0 0.0
2018-Jun-06 03:00N 39°16' W 076°34'0 0.0
2018-Jun-06 02:30N 39°16' W 076°34'0 0.0
2018-Jun-06 02:00N 39°16' W 076°34'0 0.0
2018-Jun-06 01:30N 39°16' W 076°34'0 0.0
2018-Jun-06 01:00N 39°16' W 076°34'0 0.0
2018-Jun-06 00:30N 39°16' W 076°34'0 0.0
2018-Jun-06 00:00N 39°16' W 076°34'0 0.0
2018-Jun-05 23:30N 39°16' W 076°34'0 0.0
2018-Jun-05 23:00N 39°16' W 076°34'0 0.0
2018-Jun-05 22:30N 39°16' W 076°34'0 0.0
2018-Jun-05 22:00N 39°16' W 076°34'0 0.0
2018-Jun-05 21:30N 39°16' W 076°34'0 0.0
2018-Jun-05 21:00N 39°16' W 076°34'0 0.0
2018-Jun-05 20:30N 39°16' W 076°34'0 0.0
2018-Jun-05 20:00N 39°16' W 076°34'0 0.0
2018-Jun-05 19:30N 39°16' W 076°34'0 0.0
2018-Jun-05 19:00N 39°16' W 076°34'0 0.0
2018-Jun-05 18:30N 39°16' W 076°34'0 0.0
2018-Jun-05 18:00N 39°16' W 076°34'0 0.0
2018-Jun-05 17:30N 39°16' W 076°34'0 0.0
2018-Jun-05 17:00N 39°16' W 076°34'0 0.0
2018-Jun-05 16:30N 39°16' W 076°34'0 0.0
2018-Jun-05 16:00N 39°16' W 076°34'0 0.0
2018-Jun-05 15:30N 39°16' W 076°34'0 0.0
2018-Jun-05 15:00N 39°16' W 076°34'0 0.0
2018-Jun-05 14:30N 39°16' W 076°34'0 0.0
2018-Jun-05 14:00N 39°16' W 076°34'0 0.0
2018-Jun-05 13:30N 39°16' W 076°34'0 0.0
2018-Jun-05 13:00N 39°16' W 076°34'0 0.0
2018-Jun-05 12:30N 39°16' W 076°34'0 0.0
2018-Jun-05 12:00N 39°16' W 076°34'0 0.0
2018-Jun-05 11:30N 39°16' W 076°34'0 0.0
2018-Jun-05 11:00N 39°16' W 076°34'0 0.0
2018-Jun-05 10:30N 39°16' W 076°34'0 0.0
2018-Jun-05 10:00N 39°16' W 076°34'0 0.0
2018-Jun-05 09:30N 39°16' W 076°34'0 0.0
2018-Jun-05 09:00N 39°16' W 076°34'0 0.0
2018-Jun-05 08:30N 39°16' W 076°34'0 0.0
2018-Jun-05 08:00N 39°16' W 076°34'0 0.0
2018-Jun-05 07:30N 39°16' W 076°34'0 0.0
2018-Jun-05 07:00N 39°16' W 076°34'0 0.0
2018-Jun-05 06:30N 39°16' W 076°34'0 0.0
2018-Jun-05 06:00N 39°16' W 076°34'0 0.0
2018-Jun-05 05:30N 39°16' W 076°34'0 0.0
2018-Jun-05 05:00N 39°16' W 076°34'0 0.0
2018-Jun-05 04:30N 39°16' W 076°34'0 0.0
2018-Jun-05 04:00N 39°16' W 076°34'0 0.0
2018-Jun-05 03:30N 39°16' W 076°34'0 0.0
2018-Jun-05 03:00N 39°16' W 076°34'0 0.0
2018-Jun-05 02:30N 39°16' W 076°34'0 0.0
2018-Jun-05 02:00N 39°16' W 076°34'0 0.0
2018-Jun-05 01:30N 39°16' W 076°34'  

Dump ship's entire track history